Time;durP1;ratioP1;P1;durP2;ratioP2;P2;SDS_P1;SDS_P2;PMS_P1;PMS_P2;Temp;Humidity;BMP_temperature;BMP_pressure;BME280_temperature;BME280_humidity;BME280_pressure;Samples;Min_cycle;Max_cycle;Signal;HPM_P1;HPM_P2
2021/06/09 00:03:55;;;;;;;5.50;4.60;;;;;;;16.07;100.00;102264.77;1918097;73;40220;-76
2021/06/09 00:09:20;;;;;;;4.30;3.80;;;;;;;16.23;100.00;102251.50;1893060;74;86586;-76
2021/06/09 00:14:45;;;;;;;6.87;4.70;;;;;;;16.09;100.00;102261.09;1938648;72;39675;-76
2021/06/09 00:22:59;;;;;;;5.37;4.43;;;;;;;15.89;100.00;102262.05;1997253;69;39445;-76
2021/06/09 00:25:29;;;;;;;4.87;4.10;;;;;;;15.51;100.00;102272.54;1938071;72;934754;-76
2021/06/09 00:27:59;;;;;;;6.67;4.87;;;;;;;15.53;100.00;102265.27;1925831;72;936552;-76
2021/06/09 00:30:33;;;;;;;6.00;4.43;;;;;;;15.54;100.00;102268.32;1961847;72;935466;-77
2021/06/09 00:33:06;;;;;;;4.77;4.20;;;;;;;15.29;100.00;102271.42;1949107;72;936506;-77
2021/06/09 00:35:37;;;;;;;4.63;4.23;;;;;;;15.28;100.00;102268.34;1961875;72;934951;-77
2021/06/09 00:38:08;;;;;;;6.03;4.67;;;;;;;15.31;100.00;102269.20;1928886;72;936569;-77
2021/06/09 00:40:38;;;;;;;6.80;4.60;;;;;;;15.39;100.00;102267.22;1838967;76;934652;-77
2021/06/09 00:43:11;;;;;;;5.65;5.08;;;;;;;15.34;100.00;102262.19;1859296;75;936622;-77
2021/06/09 00:48:41;;;;;;;6.07;5.00;;;;;;;15.42;100.00;102251.80;1751578;81;86359;-77
2021/06/09 00:54:08;;;;;;;6.80;5.87;;;;;;;15.29;100.00;102247.63;1926583;73;39505;-76
2021/06/09 00:59:34;;;;;;;7.00;6.30;;;;;;;15.54;100.00;102250.11;1838126;77;85370;-76
2021/06/09 01:04:59;;;;;;;7.67;6.30;;;;;;;15.42;100.00;102248.44;1945103;73;39614;-76
2021/06/09 01:10:24;;;;;;;6.83;6.03;;;;;;;15.36;100.00;102243.16;1877623;76;85084;-77
2021/06/09 01:15:49;;;;;;;7.93;6.07;;;;;;;15.27;100.00;102245.69;1946717;73;39588;-76
2021/06/09 01:21:15;;;;;;;7.10;6.27;;;;;;;15.27;100.00;102237.84;1891575;74;86332;-76
2021/06/09 01:26:39;;;;;;;6.30;5.70;;;;;;;15.29;100.00;102238.39;1838476;77;86410;-77
2021/06/09 01:32:05;;;;;;;8.60;6.20;;;;;;;15.04;100.00;102239.27;1932337;72;39529;-76
2021/06/09 01:37:32;;;;;;;7.80;5.97;;;;;;;14.94;100.00;102247.66;1782693;80;86787;-76
2021/06/09 01:42:57;;;;;;;6.23;5.63;;;;;;;15.00;100.00;102241.80;1945588;73;39489;-76
2021/06/09 01:48:20;;;;;;;6.30;5.70;;;;;;;14.84;100.00;102242.94;1837022;77;86222;-76
2021/06/09 01:53:48;;;;;;;7.53;6.17;;;;;;;14.79;100.00;102238.73;1904256;73;39577;-76
2021/06/09 01:59:14;;;;;;;7.20;6.00;;;;;;;14.76;100.00;102237.88;1876888;75;86191;-77
2021/06/09 02:04:42;;;;;;;7.80;6.97;;;;;;;14.69;100.00;102230.88;1840900;77;86844;-77
2021/06/09 02:10:14;;;;;;;8.07;7.03;;;;;;;14.67;100.00;102242.92;1926721;72;39713;-76
2021/06/09 02:15:41;;;;;;;7.17;6.47;;;;;;;14.46;100.00;102247.08;1949176;73;39467;-76
2021/06/09 02:21:08;;;;;;;7.77;6.97;;;;;;;14.32;100.00;102235.30;1943740;72;39561;-76
2021/06/09 02:26:32;;;;;;;9.23;7.70;;;;;;;14.15;100.00;102245.32;1847251;76;86397;-76
2021/06/09 02:31:56;;;;;;;9.20;7.40;;;;;;;14.12;100.00;102244.45;1945694;72;39541;-76
2021/06/09 02:37:23;;;;;;;8.23;7.03;;;;;;;14.14;100.00;102247.83;1882646;75;86567;-77
2021/06/09 02:42:48;;;;;;;9.07;8.07;;;;;;;13.86;100.00;102248.30;1937173;72;39806;-76
2021/06/09 02:48:14;;;;;;;8.07;7.27;;;;;;;13.85;100.00;102250.25;1908618;73;39626;-76
2021/06/09 02:53:42;;;;;;;10.43;8.40;;;;;;;13.79;100.00;102256.06;1838602;77;86202;-77
2021/06/09 02:59:21;;;;;;;10.10;8.83;;;;;;;13.83;100.00;102254.41;1904449;75;86597;-76
2021/06/09 03:01:56;;;;;;;8.50;7.47;;;;;;;13.83;100.00;102259.99;1833121;77;946391;-76
2021/06/09 03:04:29;;;;;;;12.40;8.80;;;;;;;13.85;100.00;102264.77;1844956;77;936461;-76
2021/06/09 03:07:02;;;;;;;9.20;8.30;;;;;;;13.85;100.00;102264.22;1832945;77;938630;-76
2021/06/09 03:12:42;;;;;;;13.27;9.07;;;;;;;13.63;100.00;102250.98;1784914;79;86432;-77
2021/06/09 03:18:15;;;;;;;8.77;7.93;;;;;;;13.48;100.00;102243.91;1909437;73;39705;-77
2021/06/09 03:23:49;;;;;;;11.23;8.80;;;;;;;13.49;100.00;102242.80;1948251;73;39604;-76
2021/06/09 03:32:09;;;;;;;10.90;8.83;;;;;;;13.53;100.00;102243.94;1994427;69;39559;-76
2021/06/09 03:37:38;;;;;;;12.87;8.90;;;;;;;13.37;100.00;102240.23;1838063;77;86877;-77
2021/06/09 03:43:08;;;;;;;10.53;8.73;;;;;;;13.31;100.00;102246.87;1932156;72;39529;-77
2021/06/09 03:48:35;;;;;;;10.63;8.90;;;;;;;13.26;100.00;102241.84;1777227;79;86346;-77
2021/06/09 03:54:02;;;;;;;10.03;8.40;;;;;;;13.35;100.00;102232.66;1897325;73;39455;-77
2021/06/09 03:59:28;;;;;;;9.07;8.00;;;;;;;13.21;100.00;102232.88;1832517;78;86159;-76
2021/06/09 04:04:56;;;;;;;10.50;9.40;;;;;;;13.16;100.00;102227.26;1917763;72;39825;-77
2021/06/09 04:10:22;;;;;;;10.57;9.43;;;;;;;13.12;100.00;102216.35;1837038;77;86193;-76
2021/06/09 04:15:47;;;;;;;9.77;8.80;;;;;;;13.08;100.00;102229.13;1948079;73;39794;-77
2021/06/09 04:21:15;;;;;;;12.37;9.63;;;;;;;13.07;100.00;102228.28;1845517;78;86547;-76
2021/06/09 04:26:42;;;;;;;12.63;10.17;;;;;;;12.95;100.00;102222.06;1922310;73;39518;-76
2021/06/09 04:32:09;;;;;;;11.83;9.60;;;;;;;13.05;100.00;102223.52;1943615;73;39465;-77
2021/06/09 04:37:44;;;;;;;13.70;9.20;;;;;;;13.08;100.00;102216.02;1938979;73;40015;-77
2021/06/09 04:43:16;;;;;;;12.67;10.07;;;;;;;13.31;100.00;102213.38;1877008;75;86717;-79
2021/06/09 04:48:39;;;;;;;10.73;9.40;;;;;;;13.15;100.00;102215.80;1838448;77;86661;-76
2021/06/09 04:54:05;;;;;;;12.90;9.37;;;;;;;13.15;100.00;102212.47;1944264;72;39676;-76
2021/06/09 04:59:30;;;;;;;13.90;9.37;;;;;;;13.18;100.00;102220.28;1947633;71;86015;-76
2021/06/09 05:04:55;;;;;;;12.17;9.47;;;;;;;13.34;100.00;102207.28;1945945;73;39780;-76
2021/06/09 05:10:20;;;;;;;12.43;10.17;;;;;;;13.33;100.00;102208.94;1876749;74;86168;-76
2021/06/09 05:15:52;;;;;;;14.73;10.00;;;;;;;13.61;100.00;102200.14;1937071;72;39665;-77
2021/06/09 05:24:09;;;;;;;11.97;10.67;;;;;;;13.74;100.00;102205.77;1993834;69;39619;-76
2021/06/09 05:26:40;;;;;;;11.27;10.10;;;;;;;13.76;100.00;102207.75;1938309;72;936807;-77
2021/06/09 05:29:13;;;;;;;13.33;9.77;;;;;;;13.83;100.00;102212.52;1888484;74;940846;-76
2021/06/09 05:34:40;;;;;;;16.17;10.70;;;;;;;13.95;100.00;102207.52;1868182;75;86575;-77
2021/06/09 05:40:10;;;;;;;15.30;10.93;;;;;;;13.75;100.00;102214.44;1927160;73;39849;-76
2021/06/09 05:45:36;;;;;;;13.80;10.83;;;;;;;14.13;100.00;102214.84;1846830;76;86256;-76
2021/06/09 05:51:00;;;;;;;14.67;10.70;;;;;;;14.19;100.00;102211.52;1915997;73;39718;-76
2021/06/09 05:56:27;;;;;;;13.40;10.73;;;;;;;14.30;100.00;102215.15;1837362;77;86246;-76
2021/06/09 06:01:52;;;;;;;12.57;11.27;;;;;;;14.34;100.00;102225.50;1919697;73;39620;-76
2021/06/09 06:07:18;;;;;;;13.60;10.33;;;;;;;14.56;100.00;102213.54;1890751;74;85482;-75
2021/06/09 06:12:44;;;;;;;11.97;9.83;;;;;;;14.70;100.00;102205.44;1948938;72;39602;-74
2021/06/09 06:18:09;;;;;;;12.27;10.20;;;;;;;14.70;100.00;102209.64;1943369;73;39618;-74
2021/06/09 06:23:39;;;;;;;10.20;9.10;;;;;;;14.89;100.00;102211.32;1891701;74;86404;-76
2021/06/09 06:29:24;;;;;;;13.13;9.97;;;;;;;14.89;100.00;102218.31;1920725;73;86467;-76
2021/06/09 06:34:51;;;;;;;11.20;9.53;;;;;;;15.17;100.00;102220.50;1903399;73;39753;-75
2021/06/09 06:40:20;;;;;;;11.07;8.97;;;;;;;15.40;100.00;102218.47;1876915;75;86697;-74
2021/06/09 06:45:47;;;;;;;11.13;9.43;;;;;;;15.60;100.00;102220.42;1948253;72;39818;-75
2021/06/09 06:51:12;;;;;;;11.10;8.77;;;;;;;15.69;100.00;102225.71;1893233;73;40243;-75
2021/06/09 06:56:39;;;;;;;11.70;9.07;;;;;;;15.81;100.00;102216.97;1838565;77;86060;-76
2021/06/09 07:02:06;;;;;;;12.13;8.67;;;;;;;15.97;100.00;102209.31;1915684;72;39609;-74
2021/06/09 07:07:33;;;;;;;11.83;8.50;;;;;;;16.09;100.00;102214.03;1782400;79;86362;-75
2021/06/09 07:13:05;;;;;;;8.67;7.87;;;;;;;16.20;100.00;102212.27;1931024;72;39860;-75
2021/06/09 07:18:31;;;;;;;9.63;7.97;;;;;;;16.35;100.00;102210.75;1843439;76;85823;-75
2021/06/09 07:23:56;;;;;;;10.33;8.43;;;;;;;16.55;100.00;102204.73;1932849;73;39420;-76
2021/06/09 07:29:23;;;;;;;8.50;7.70;;;;;;;16.76;100.00;102210.48;1837015;77;86324;-75
2021/06/09 07:34:49;;;;;;;8.20;6.87;;;;;;;17.15;100.00;102209.00;1947251;73;39648;-75
2021/06/09 07:40:20;;;;;;;7.53;6.83;;;;;;;17.67;100.00;102205.35;1876846;75;86555;-76
2021/06/09 07:45:49;;;;;;;8.03;7.20;;;;;;;18.38;100.00;102211.38;1943720;72;39682;-78
2021/06/09 07:51:17;;;;;;;6.17;5.33;;;;;;;18.46;100.00;102193.80;1904554;75;85934;-76
2021/06/09 07:56:44;;;;;;;9.03;6.67;;;;;;;19.09;100.00;102202.58;1906516;73;39573;-77
2021/06/09 08:02:11;;;;;;;5.80;5.30;;;;;;;19.39;100.00;102202.00;1943171;73;39792;-77
2021/06/09 08:07:38;;;;;;;7.07;5.17;;;;;;;19.91;100.00;102206.87;1903698;74;86306;-77
2021/06/09 08:13:04;;;;;;;5.90;4.30;;;;;;;19.99;100.00;102205.56;1893229;73;39779;-74
2021/06/09 08:18:30;;;;;;;4.90;4.43;;;;;;;20.60;100.00;102203.33;1777342;80;86666;-74
2021/06/09 08:24:01;;;;;;;7.20;4.80;;;;;;;20.73;100.00;102203.84;1944675;73;39835;-77
2021/06/09 08:29:26;;;;;;;4.70;3.27;;;;;;;21.06;100.00;102200.98;1837429;77;86363;-77
2021/06/09 08:34:50;;;;;;;3.87;3.57;;;;;;;21.25;100.00;102179.03;1946873;72;39626;-75
2021/06/09 08:40:14;;;;;;;5.80;3.67;;;;;;;21.74;100.00;102175.61;1876911;75;86721;-78
2021/06/09 08:45:40;;;;;;;5.30;3.27;;;;;;;21.76;100.00;102171.31;1848522;76;86467;-76
2021/06/09 08:51:05;;;;;;;3.80;3.40;;;;;;;22.12;100.00;102177.33;1944346;73;40305;-77
2021/06/09 08:56:31;;;;;;;5.10;3.10;;;;;;;22.15;100.00;102163.92;1793564;79;86301;-76
2021/06/09 09:01:57;;;;;;;2.57;2.20;;;;;;;22.27;100.00;102161.25;1945794;73;39474;-79
2021/06/09 09:07:28;;;;;;;3.10;2.80;;;;;;;22.50;100.00;102171.26;1837238;77;86394;-76
2021/06/09 09:12:53;;;;;;;3.93;2.47;;;;;;;22.57;100.00;102167.33;1946559;73;39439;-75
2021/06/09 09:18:18;;;;;;;3.37;2.20;;;;;;;22.74;100.00;102169.33;1877744;75;86335;-75
2021/06/09 09:23:53;;;;;;;3.37;2.23;;;;;;;22.61;100.00;102159.83;1948632;73;39554;-78
2021/06/09 09:29:21;;;;;;;10.17;5.90;;;;;;;22.79;100.00;102164.91;1876848;75;86726;-76
2021/06/09 09:34:48;;;;;;;1.60;1.50;;;;;;;22.97;100.00;102157.21;1947264;73;39456;-75
2021/06/09 09:40:18;;;;;;;2.27;2.00;;;;;;;23.07;100.00;102163.91;1877051;75;85511;-75
2021/06/09 09:45:42;;;;;;;3.27;2.00;;;;;;;23.23;100.00;102157.96;1924455;73;39602;-75
2021/06/09 09:51:07;;;;;;;3.77;1.87;;;;;;;23.10;100.00;102159.00;1943936;73;39477;-77
2021/06/09 09:56:35;;;;;;;1.90;1.80;;;;;;;23.24;100.00;102153.93;1838106;77;85632;-76
2021/06/09 10:02:04;;;;;;;2.30;1.47;;;;;;;23.29;100.00;102155.75;1944829;73;40043;-77
2021/06/09 10:07:30;;;;;;;1.83;1.50;;;;;;;22.88;100.00;102152.98;1768924;80;86139;-77
2021/06/09 10:13:09;;;;;;;1.90;1.60;;;;;;;22.84;100.00;102144.91;1933347;73;39582;-77
2021/06/09 10:18:35;;;;;;;1.98;1.70;;;;;;;22.65;100.00;102148.06;1869302;77;86600;-76
2021/06/09 10:24:09;;;;;;;1.42;1.20;;;;;;;22.62;100.00;102148.75;1895009;73;39629;-75
2021/06/09 10:29:35;;;;;;;1.60;1.50;;;;;;;22.62;100.00;102151.58;1829240;77;86146;-74
2021/06/09 10:35:07;;;;;;;4.35;1.55;;;;;;;22.72;100.00;102134.02;1894439;73;39431;-77
2021/06/09 10:40:34;;;;;;;1.02;0.93;;;;;;;22.82;100.00;102131.65;1777283;79;86392;-74
2021/06/09 10:46:02;;;;;;;1.92;1.20;;;;;;;22.92;93.23;102131.87;1895461;72;39400;-76
2021/06/09 10:51:27;;;;;;;2.63;0.73;;;;;;;22.87;97.71;102139.14;1837302;77;86169;-73
2021/06/09 10:56:58;;;;;;;7.40;1.60;;;;;;;22.76;91.47;102129.34;1945775;73;39542;-76
2021/06/09 11:02:25;;;;;;;3.47;0.90;;;;;;;22.76;95.49;102132.18;1832360;78;86655;-75
2021/06/09 11:07:53;;;;;;;1.30;0.73;;;;;;;23.22;77.62;102127.94;1919679;73;39480;-74
2021/06/09 11:13:38;;;;;;;3.62;1.05;;;;;;;23.48;76.29;102134.94;1838308;77;86388;-77
2021/06/09 11:19:04;;;;;;;0.90;0.80;;;;;;;22.86;87.88;102125.55;1932553;72;40456;-74
2021/06/09 11:24:31;;;;;;;1.27;0.80;;;;;;;23.13;75.32;102126.55;1786066;79;86852;-73
2021/06/09 11:30:37;;;;;;;1.23;0.73;;;;;;;23.27;81.57;102122.66;1889179;73;39636;-77
2021/06/09 11:36:05;;;;;;;0.50;0.50;;;;;;;23.08;78.40;102105.48;1914508;73;39794;-74
2021/06/09 11:41:41;;;;;;;2.52;0.72;;;;;;;22.97;77.92;102100.52;1838078;77;86329;-78
2021/06/09 11:47:21;;;;;;;1.72;0.70;;;;;;;23.22;71.50;102102.42;1883681;72;86614;-74
2021/06/09 11:53:12;;;;;;;16.30;12.23;;;;;;;23.08;70.84;102103.22;1905898;73;39424;-74
2021/06/09 11:58:24;;;;;;;2.87;2.27;;;;;;;23.27;68.81;102100.81;1837198;77;86817;-74
2021/06/09 12:04:22;;;;;;;1.05;0.90;;;;;;;23.62;51.27;102093.56;1918971;73;39492;-77
2021/06/09 12:09:51;;;;;;;1.92;1.70;;;;;;;23.45;63.63;102093.89;1920630;73;39631;-75
2021/06/09 12:15:17;;;;;;;2.65;1.35;;;;;;;23.47;67.68;102083.05;1876936;75;86186;-77
2021/06/09 12:20:41;;;;;;;0.98;0.90;;;;;;;23.34;61.30;102077.00;1939396;72;39531;-74
2021/06/09 12:26:08;;;;;;;0.72;0.62;;;;;;;23.19;66.98;102073.31;1943855;73;39613;-75
2021/06/09 12:31:36;;;;;;;0.60;0.60;;;;;;;23.79;53.74;102065.06;1874514;75;86487;-76
2021/06/09 12:37:07;;;;;;;1.43;0.80;;;;;;;23.65;62.84;102080.09;1917111;73;39644;-74
2021/06/09 12:42:33;;;;;;;0.50;0.47;;;;;;;23.83;46.98;102060.36;2024325;70;86203;-75
2021/06/09 12:47:57;;;;;;;1.42;0.60;;;;;;;23.49;66.07;102061.44;1915720;74;39402;-77
2021/06/09 12:53:26;;;;;;;0.80;0.70;;;;;;;23.52;66.37;102060.16;1837224;77;86359;-78
2021/06/09 12:58:52;;;;;;;1.15;0.80;;;;;;;23.52;68.27;102061.58;1945383;73;39508;-76
2021/06/09 13:04:32;;;;;;;0.75;0.68;;;;;;;23.63;70.52;102058.31;1876864;75;86439;-74
2021/06/09 13:09:58;;;;;;;0.72;0.65;;;;;;;23.61;71.51;102059.27;1899673;73;39652;-74
2021/06/09 13:15:24;;;;;;;0.50;0.50;;;;;;;23.53;68.61;102058.96;1837238;77;86733;-74
2021/06/09 13:21:17;;;;;;;0.40;0.40;;;;;;;23.57;71.93;102052.88;1948138;71;39456;-75
2021/06/09 13:26:45;;;;;;;1.85;0.72;;;;;;;23.55;72.07;102045.86;1948758;73;39684;-78
2021/06/09 13:32:19;;;;;;;0.40;0.40;;;;;;;23.78;63.62;102041.53;1906434;72;39543;-74
2021/06/09 13:38:05;;;;;;;1.50;0.62;;;;;;;23.80;69.96;102039.74;1945125;71;39576;-74
2021/06/09 13:43:33;;;;;;;1.55;0.60;;;;;;;23.57;77.92;102034.44;1943679;71;86751;-74
2021/06/09 13:48:55;;;;;;;1.30;0.78;;;;;;;23.53;81.35;102044.78;1900271;72;39645;-76
2021/06/09 13:54:27;;;;;;;1.20;0.60;;;;;;;24.04;80.89;102041.31;1882357;75;85583;-74
2021/06/09 13:59:57;;;;;;;0.82;0.80;;;;;;;23.73;81.68;102040.90;1934795;73;40098;-76
2021/06/09 14:05:46;;;;;;;0.68;0.68;;;;;;;23.62;81.51;102043.30;1884357;74;86955;-77
2021/06/09 14:11:17;;;;;;;1.57;0.53;;;;;;;23.66;79.91;102047.11;1877127;75;86478;-76
2021/06/09 14:16:42;;;;;;;0.72;0.47;;;;;;;24.01;77.17;102047.66;1949298;73;39433;-77
2021/06/09 14:22:31;;;;;;;1.12;0.93;;;;;;;24.18;72.48;102047.53;1931802;72;39410;-74
2021/06/09 14:28:07;;;;;;;1.37;0.62;;;;;;;23.79;80.97;102035.27;1912814;73;39710;-76
2021/06/09 14:33:37;;;;;;;3.05;0.60;;;;;;;23.93;84.47;102036.63;1947036;71;86428;-75
2021/06/09 14:39:07;;;;;;;2.00;0.60;;;;;;;23.81;92.52;102026.64;1912869;73;39647;-77
2021/06/09 14:44:41;;;;;;;0.75;0.50;;;;;;;23.78;98.12;102030.18;1863218;76;86286;-74
2021/06/09 14:50:06;;;;;;;1.27;0.80;;;;;;;23.85;100.00;102029.61;1944228;73;46985;-73
2021/06/09 14:55:32;;;;;;;3.62;0.90;;;;;;;23.89;100.00;102017.80;1943574;71;86424;-76
2021/06/09 15:01:21;;;;;;;1.10;0.80;;;;;;;24.12;100.00;102014.01;1915471;73;86083;-75
2021/06/09 15:06:43;;;;;;;3.37;0.80;;;;;;;24.10;100.00;102013.52;1922200;73;39562;-75
2021/06/09 15:09:15;;;;;;;4.65;1.10;;;;;;;24.01;100.00;102020.69;1892839;75;934605;-77
2021/06/09 15:14:39;;;;;;;2.92;1.02;;;;;;;24.07;100.00;102010.80;1838416;77;86196;-76
2021/06/09 15:20:07;;;;;;;1.77;1.07;;;;;;;23.98;100.00;102015.14;1944508;73;39522;-73
2021/06/09 15:25:31;;;;;;;1.45;1.17;;;;;;;24.09;100.00;102013.30;1784982;79;85487;-76
2021/06/09 15:30:56;;;;;;;1.77;1.00;;;;;;;24.09;100.00;102018.36;1946055;73;39549;-76
2021/06/09 15:36:20;;;;;;;6.25;1.35;;;;;;;24.12;100.00;102011.17;1876916;75;86716;-73
2021/06/09 15:41:48;;;;;;;4.65;1.30;;;;;;;24.31;100.00;102011.48;1948763;73;39377;-76
2021/06/09 15:47:12;;;;;;;2.25;1.30;;;;;;;24.14;100.00;102004.53;1957269;72;85443;-74
2021/06/09 15:52:40;;;;;;;2.72;1.30;;;;;;;24.09;100.00;102011.26;1838081;77;86928;-76
2021/06/09 15:58:06;;;;;;;2.75;1.60;;;;;;;24.10;100.00;101994.47;1891689;73;39406;-74
2021/06/09 16:03:31;;;;;;;2.25;1.47;;;;;;;24.09;100.00;101994.23;1947640;71;86676;-74
2021/06/09 16:09:16;;;;;;;2.47;1.40;;;;;;;24.21;100.00;101994.91;1868381;76;86327;-77
2021/06/09 16:14:45;;;;;;;2.00;1.45;;;;;;;24.15;100.00;101976.39;1922006;73;40772;-72
2021/06/09 16:20:12;;;;;;;1.82;1.50;;;;;;;24.27;100.00;101978.70;1931225;73;39861;-74
2021/06/09 16:25:36;;;;;;;2.20;1.62;;;;;;;24.25;100.00;101965.47;1843480;76;86286;-74
2021/06/09 16:31:02;;;;;;;1.92;1.60;;;;;;;24.34;100.00;101962.53;1914238;73;39812;-74
2021/06/09 16:36:26;;;;;;;1.65;1.50;;;;;;;24.12;100.00;101973.67;1837581;77;85498;-76
2021/06/09 16:41:51;;;;;;;1.40;1.30;;;;;;;24.21;100.00;101959.42;1903155;73;39462;-74
2021/06/09 16:47:15;;;;;;;2.62;1.80;;;;;;;24.34;100.00;101954.84;1888630;75;86466;-73
2021/06/09 16:52:38;;;;;;;2.70;1.40;;;;;;;24.42;100.00;101961.01;1869173;76;86681;-73
2021/06/09 17:06:33;;;;;;;1.50;1.40;;;;;;;24.38;100.00;101952.95;2011078;69;39445;-77
2021/06/09 17:09:04;;;;;;;1.60;1.50;;;;;;;24.30;100.00;101952.44;1920859;72;936483;-78
2021/06/09 17:11:35;;;;;;;1.67;1.45;;;;;;;24.25;100.00;101955.53;1883938;74;934705;-78
2021/06/09 17:14:06;;;;;;;1.72;1.40;;;;;;;24.22;100.00;101955.37;1828207;75;936551;-78
2021/06/09 17:16:39;;;;;;;4.05;1.40;;;;;;;24.19;100.00;101955.50;1846617;76;934835;-78
2021/06/09 17:19:08;;;;;;;1.70;1.60;;;;;;;24.18;100.00;101956.67;1856920;74;936508;-78
2021/06/09 17:21:38;;;;;;;1.62;1.50;;;;;;;24.12;100.00;101957.23;1882807;75;934692;-78
2021/06/09 17:24:09;;;;;;;1.25;1.15;;;;;;;24.13;100.00;101952.63;1859658;75;936584;-78
2021/06/09 17:26:40;;;;;;;1.70;1.40;;;;;;;24.16;100.00;101961.89;1871797;75;934690;-78
2021/06/09 17:29:10;;;;;;;1.70;1.60;;;;;;;24.20;100.00;101953.49;1859612;75;935463;-78
2021/06/09 17:31:40;;;;;;;2.20;1.47;;;;;;;24.16;100.00;101953.95;1871724;75;934568;-78
2021/06/09 17:34:10;;;;;;;1.37;1.30;;;;;;;24.19;100.00;101958.92;1859526;75;936691;-78
2021/06/09 17:36:40;;;;;;;2.72;1.60;;;;;;;24.15;100.00;101955.09;1871790;75;934694;-78
2021/06/09 17:39:10;;;;;;;1.45;1.35;;;;;;;24.13;100.00;101950.38;1827950;75;936580;-77
2021/06/09 17:41:41;;;;;;;2.80;1.40;;;;;;;24.16;100.00;101950.53;1871740;75;934459;-77
2021/06/09 17:44:11;;;;;;;1.47;1.17;;;;;;;24.21;100.00;101952.32;1827840;76;936696;-77
2021/06/09 17:46:41;;;;;;;2.30;1.40;;;;;;;24.14;100.00;101959.94;1871900;76;934593;-77
2021/06/09 17:49:11;;;;;;;1.37;1.25;;;;;;;24.11;100.00;101956.98;1843679;76;935457;-77
2021/06/09 17:51:41;;;;;;;1.22;1.12;;;;;;;24.02;100.00;101962.16;1872046;76;934664;-77
2021/06/09 17:57:07;;;;;;;1.60;1.07;;;;;;;24.13;100.00;101947.54;1913387;73;39490;-77
2021/06/09 18:02:42;;;;;;;1.35;1.20;;;;;;;24.11;100.00;101953.55;1751889;80;86368;-75
2021/06/09 18:08:09;;;;;;;1.30;1.20;;;;;;;24.12;100.00;101948.13;1931876;73;39670;-74
2021/06/09 18:13:35;;;;;;;1.30;1.20;;;;;;;24.15;100.00;101946.02;1877461;75;86358;-75
2021/06/09 18:18:59;;;;;;;1.50;1.30;;;;;;;24.18;100.00;101948.16;1945411;73;39471;-77
2021/06/09 18:24:24;;;;;;;1.40;1.30;;;;;;;24.16;100.00;101947.69;1877971;75;85459;-77
2021/06/09 18:29:51;;;;;;;1.35;1.25;;;;;;;24.10;100.00;101956.14;1995093;69;39452;-76
2021/06/09 18:35:20;;;;;;;1.32;1.22;;;;;;;24.05;100.00;101962.88;1788355;79;86460;-74
2021/06/09 18:40:45;;;;;;;2.00;1.30;;;;;;;24.03;100.00;101964.41;1948882;73;39607;-75
2021/06/09 18:46:11;;;;;;;2.40;1.20;;;;;;;23.96;100.00;101974.09;1931031;72;39459;-76
2021/06/09 18:51:35;;;;;;;1.70;1.20;;;;;;;23.93;100.00;101975.61;1838360;77;86432;-76
2021/06/09 18:56:59;;;;;;;1.30;1.20;;;;;;;23.89;100.00;101983.74;1945486;73;39539;-76
2021/06/09 19:02:24;;;;;;;2.37;1.55;;;;;;;23.85;100.00;101989.87;1869520;75;86094;-75
2021/06/09 19:07:50;;;;;;;1.55;1.40;;;;;;;23.78;100.00;101993.29;1920916;73;39522;-76
2021/06/09 19:13:17;;;;;;;1.42;1.30;;;;;;;23.75;100.00;101996.80;1877138;75;86293;-76
2021/06/09 19:18:42;;;;;;;2.20;2.00;;;;;;;23.70;100.00;102001.30;1949646;73;39491;-76
2021/06/09 19:24:09;;;;;;;3.83;1.92;;;;;;;23.71;100.00;102007.19;1931928;72;39525;-75
2021/06/09 19:29:34;;;;;;;3.05;2.02;;;;;;;23.66;100.00;102013.06;1782301;78;86178;-77
2021/06/09 19:34:59;;;;;;;2.05;1.82;;;;;;;23.61;100.00;102006.20;1945286;73;39656;-76
2021/06/09 19:40:25;;;;;;;1.50;1.40;;;;;;;23.51;100.00;102013.69;1832522;77;85805;-77
2021/06/09 19:45:50;;;;;;;1.57;1.40;;;;;;;23.45;100.00;102010.80;1953620;73;39734;-77
2021/06/09 19:51:14;;;;;;;2.50;1.70;;;;;;;23.41;100.00;102023.40;1904684;75;85689;-77
2021/06/09 19:56:37;;;;;;;1.65;1.55;;;;;;;23.34;100.00;102022.28;1785125;79;86178;-76
2021/06/09 20:02:03;;;;;;;2.65;1.75;;;;;;;23.28;100.00;102032.15;1914963;73;39637;-75
2021/06/09 20:07:27;;;;;;;2.17;2.05;;;;;;;23.12;100.00;102027.08;1868575;76;86290;-76
2021/06/09 20:12:52;;;;;;;2.35;1.90;;;;;;;22.94;100.00;102036.84;1945557;73;39626;-76
2021/06/09 20:18:17;;;;;;;2.50;2.00;;;;;;;22.87;100.00;102037.96;1876940;75;86430;-75
2021/06/09 20:23:41;;;;;;;2.90;2.60;;;;;;;22.79;100.00;102043.66;1907911;73;40421;-81
2021/06/09 20:29:05;;;;;;;3.05;1.90;;;;;;;22.75;100.00;102052.02;1944036;73;39591;-77
2021/06/09 20:34:30;;;;;;;2.42;2.22;;;;;;;22.73;100.00;102057.17;1825219;77;86568;-75
2021/06/09 20:39:54;;;;;;;2.27;2.00;;;;;;;22.54;100.00;102060.37;1933592;73;39509;-76
2021/06/09 20:45:22;;;;;;;2.73;2.00;;;;;;;22.46;100.00;102073.14;1877101;75;85654;-79
2021/06/09 20:50:47;;;;;;;2.02;1.92;;;;;;;22.41;100.00;102075.56;1923779;72;39432;-74
2021/06/09 20:56:12;;;;;;;2.67;1.87;;;;;;;22.24;100.00;102082.66;1908869;73;39694;-79
2021/06/09 21:01:40;;;;;;;2.42;1.95;;;;;;;22.13;100.00;102075.08;1838289;77;86184;-78
2021/06/09 21:07:06;;;;;;;2.20;1.67;;;;;;;22.06;100.00;102080.42;1914487;73;39502;-76
2021/06/09 21:12:32;;;;;;;2.67;1.57;;;;;;;21.91;100.00;102088.52;1751832;80;86368;-75
2021/06/09 21:17:56;;;;;;;1.70;1.60;;;;;;;21.75;100.00;102103.16;1945963;73;39551;-73
2021/06/09 21:23:25;;;;;;;1.83;1.73;;;;;;;21.57;100.00;102092.98;1909512;74;85527;-82
2021/06/09 21:28:49;;;;;;;4.03;1.80;;;;;;;21.52;100.00;102107.27;1947176;73;39702;-76
2021/06/09 21:34:16;;;;;;;2.23;2.00;;;;;;;21.42;100.00;102111.00;1881702;75;86574;-77
2021/06/09 21:39:40;;;;;;;4.03;2.40;;;;;;;21.28;100.00;102113.36;1869277;77;86596;-77
2021/06/09 21:45:08;;;;;;;2.30;2.10;;;;;;;21.15;100.00;102119.12;1944020;73;39672;-74
2021/06/09 21:50:39;;;;;;;2.30;2.10;;;;;;;21.16;100.00;102112.31;1785143;79;86205;-77
2021/06/09 21:56:03;;;;;;;2.50;2.00;;;;;;;21.08;100.00;102124.38;1915013;73;39702;-77
2021/06/09 22:01:27;;;;;;;2.50;2.30;;;;;;;20.98;100.00;102126.06;1869490;76;85542;-76
2021/06/09 22:06:52;;;;;;;2.27;2.10;;;;;;;20.93;100.00;102130.44;1945810;72;40308;-75
2021/06/09 22:12:16;;;;;;;2.70;2.10;;;;;;;20.79;100.00;102142.66;1877083;75;86205;-74
2021/06/09 22:17:41;;;;;;;3.20;2.30;;;;;;;20.75;100.00;102153.54;1874673;75;86937;-77
2021/06/09 22:23:07;;;;;;;2.50;2.30;;;;;;;20.70;100.00;102144.63;1947229;73;39462;-78
2021/06/09 22:28:33;;;;;;;3.20;2.37;;;;;;;20.55;100.00;102158.27;1904601;75;85601;-77
2021/06/09 22:33:59;;;;;;;3.07;2.30;;;;;;;20.43;100.00;102161.68;1869465;77;85496;-77
2021/06/09 22:39:23;;;;;;;3.10;2.30;;;;;;;20.21;100.00;102152.58;1912781;73;39722;-77
2021/06/09 22:44:47;;;;;;;3.10;2.50;;;;;;;20.12;100.00;102150.27;1868504;76;86120;-77
2021/06/09 22:50:14;;;;;;;2.53;2.33;;;;;;;20.11;100.00;102142.94;1946452;73;39541;-78
2021/06/09 22:55:37;;;;;;;2.77;2.53;;;;;;;20.07;100.00;102141.11;1876942;75;86878;-77
2021/06/09 23:01:03;;;;;;;2.70;2.50;;;;;;;20.08;100.00;102142.75;1949120;73;39652;-74
2021/06/09 23:06:27;;;;;;;3.00;2.70;;;;;;;19.97;100.00;102141.59;1943678;73;39560;-77
2021/06/09 23:11:57;;;;;;;3.17;2.67;;;;;;;20.02;100.00;102147.70;1784997;79;85375;-77
2021/06/09 23:17:41;;;;;;;2.90;2.43;;;;;;;19.90;100.00;102137.52;1871691;76;85778;-76
2021/06/09 23:23:07;;;;;;;2.63;2.43;;;;;;;19.87;100.00;102136.17;1947613;72;39505;-77
2021/06/09 23:28:31;;;;;;;2.90;2.60;;;;;;;19.79;100.00;102137.50;1942989;73;40188;-77
2021/06/09 23:33:56;;;;;;;3.63;3.00;;;;;;;19.68;100.00;102138.89;1752384;80;86129;-77
2021/06/09 23:39:20;;;;;;;3.50;2.47;;;;;;;19.72;100.00;102134.28;1933570;72;49325;-77
2021/06/09 23:44:44;;;;;;;3.10;2.90;;;;;;;19.62;100.00;102138.16;1837447;77;86677;-76
2021/06/09 23:50:22;;;;;;;3.40;2.80;;;;;;;19.49;100.00;102141.25;1936653;72;39526;-77